Aviation Digital Data Service (ADDS)

Output produced by METARs form (1348 UTC 23 June 2018)
found at http://www.aviationweather.gov/adds/metars/
 
KILE 231256Z AUTO 12007KT 10SM BKN017 26/23 A2986 RMK AO2 SLP109 T02560233
KILE 231213Z AUTO 16008KT 10SM BKN015 26/23 A2984 RMK AO2 TSNO
KILE 231156Z AUTO 15005KT 10SM SCT017 26/23 A2985 RMK AO2 SLP105 T02560233 10283 20256 53016
KILE 231143Z AUTO 13004KT 10SM FEW017 26/23 A2984 RMK AO2 PRESRR
KILE 231056Z AUTO 17012KT 10SM OVC017 26/23 A2981 RMK AO2 SLP091 T02610233
KILE 230956Z AUTO 17012G19KT 10SM OVC017 27/23 A2981 RMK AO2 SLP089 T02670233
KILE 230856Z AUTO 17012G20KT 10SM OVC017 27/24 A2980 RMK AO2 SLP087 T02670239 53003
KILE 230756Z AUTO 17011G17KT 10SM BKN017 27/24 A2979 RMK AO2 SLP084 T02720244
KILE 230754Z AUTO 17011G17KT 10SM BKN017 27/24 A2979 RMK AO2
KILE 230656Z AUTO 16008KT 10SM CLR 28/25 A2979 RMK AO2 SLP085 T02780250
KILE 230556Z AUTO 16008KT 10SM CLR 28/24 A2980 RMK AO2 SLP087 T02830239 10361 20283 403890239 50008
KILE 230456Z AUTO 17008KT 10SM CLR 29/23 A2980 RMK AO2 SLP089 T02940233
KILE 230356Z AUTO 16008KT 10SM CLR 31/23 A2978 RMK AO2 SLP084 T03060228
KILE 230256Z AUTO 17009KT 10SM CLR 32/22 A2977 RMK AO2 SLP079 T03170222 53003
KILE 230156Z AUTO 17009KT 10SM CLR 33/22 A2976 RMK AO2 SLP078 T03280217
KILE 230056Z AUTO 16012G19KT 10SM CLR 34/22 A2977 RMK AO2 SLP078 T03440222
KILE 222356Z AUTO 17014G22KT 10SM CLR 36/23 A2976 RMK AO2 SLP077 T03610228 10389 20333 56020
KILE 222256Z AUTO 14013KT 10SM FEW075 37/21 A2977 RMK AO2 SLP080 T03720211
KILE 222156Z AUTO 17009G18KT 10SM CLR 38/21 A2980 RMK AO2 SLP087 T03830206
KILE 222056Z AUTO 19006KT 10SM CLR 38/21 A2982 RMK AO2 SLP096 T03830211 56029
KILE 221956Z AUTO 30005KT 10SM CLR 37/21 A2985 RMK AO2 SLP105 T03720206
KILE 221856Z AUTO 22008KT 190V250 10SM CLR 35/21 A2988 RMK AO2 SLP117 T03500211
KILE 221756Z AUTO VRB06G16KT 7SM CLR 33/23 A2991 RMK AO2 SLP128 T03330228 10339 20239 58010
KILE 221656Z AUTO 21010G15KT 10SM CLR 32/23 A2993 RMK AO2 SLP133 T03220228
KILE 221556Z AUTO 23008KT 10SM CLR 31/23 A2994 RMK AO2 SLP139 T03060228
KILE 221456Z AUTO 24013G16KT 10SM FEW019 29/23 A2994 RMK AO2 SLP138 T02940228 50010
KILE 221356Z AUTO 21013G18KT 10SM SCT012 27/22 A2995 RMK AO2 SLP141 T02670222